createdAt,value
2019-03-21T00:01:01.908Z,21.53
2019-03-21T00:03:33.985Z,21.70
2019-03-21T00:06:07.359Z,20.40
2019-03-21T00:08:39.451Z,21.13
2019-03-21T00:11:58.888Z,21.10
2019-03-21T00:15:03.344Z,21.37
2019-03-21T00:17:40.031Z,22.47
2019-03-21T00:20:19.099Z,23.37
2019-03-21T00:22:51.209Z,21.30
2019-03-21T00:25:24.983Z,21.47
2019-03-21T00:27:57.080Z,21.40
2019-03-21T00:30:29.250Z,21.30
2019-03-21T00:33:01.224Z,20.97
2019-03-21T00:35:33.270Z,21.70
2019-03-21T00:38:05.327Z,21.70
2019-03-21T00:40:40.823Z,23.83
2019-03-21T00:43:13.802Z,21.20
2019-03-21T00:45:45.889Z,21.00
2019-03-21T00:48:20.103Z,21.37
2019-03-21T00:50:52.105Z,21.37
2019-03-21T00:53:24.137Z,21.73
2019-03-21T00:55:57.825Z,23.40
2019-03-21T00:58:29.787Z,20.70
2019-03-21T01:01:02.602Z,21.70
2019-03-21T01:03:34.625Z,20.83
2019-03-21T01:06:06.748Z,20.07
2019-03-21T01:08:38.706Z,20.40
2019-03-21T01:11:10.739Z,23.47
2019-03-21T01:13:42.960Z,20.90
2019-03-21T01:16:15.014Z,20.00
2019-03-21T01:18:47.174Z,21.80
2019-03-21T01:21:19.306Z,24.70
2019-03-21T01:23:51.527Z,24.20
2019-03-21T01:26:23.475Z,23.50
2019-03-21T01:28:55.453Z,20.80
2019-03-21T01:31:27.495Z,22.00
2019-03-21T01:33:59.508Z,21.10
2019-03-21T01:36:31.941Z,22.17
2019-03-21T01:39:04.357Z,23.93
2019-03-21T01:41:36.300Z,20.67
2019-03-21T01:44:08.525Z,22.40
2019-03-21T01:46:40.530Z,21.37
2019-03-21T01:49:12.613Z,21.73
2019-03-21T01:51:44.636Z,25.30
2019-03-21T01:54:16.654Z,21.87
2019-03-21T01:56:48.708Z,22.80
2019-03-21T01:59:20.734Z,21.83
2019-03-21T02:01:52.787Z,24.70
2019-03-21T02:04:24.840Z,22.03
2019-03-21T02:06:56.911Z,21.90
2019-03-21T02:09:28.966Z,20.63
2019-03-21T02:12:01.150Z,22.07
2019-03-21T02:14:33.209Z,21.53
2019-03-21T02:17:05.291Z,21.47
2019-03-21T02:19:37.305Z,21.67
2019-03-21T02:22:09.393Z,21.10
2019-03-21T02:24:41.407Z,21.20
2019-03-21T02:27:13.487Z,21.67
2019-03-21T02:29:45.537Z,21.70
2019-03-21T02:32:17.593Z,23.20
2019-03-21T02:34:49.693Z,20.43
2019-03-21T02:37:21.747Z,21.70
2019-03-21T02:39:59.910Z,21.03
2019-03-21T02:42:27.520Z,19.77
2019-03-21T02:45:08.515Z,18.43
2019-03-21T02:47:33.208Z,19.53
2019-03-21T02:50:05.569Z,18.20
2019-03-21T02:52:37.521Z,19.67
2019-03-21T02:55:10.315Z,19.77
2019-03-21T02:57:42.418Z,18.20
2019-03-21T03:00:18.711Z,19.77
2019-03-21T03:02:52.150Z,19.53
2019-03-21T03:05:26.429Z,19.60
2019-03-21T03:07:58.532Z,18.20
2019-03-21T03:10:37.754Z,18.57
2019-03-21T03:13:09.846Z,20.70
2019-03-21T03:15:41.989Z,19.57
2019-03-21T03:18:14.024Z,19.70
2019-03-21T03:20:46.035Z,19.00
2019-03-21T03:23:18.171Z,18.37
2019-03-21T03:25:51.195Z,20.87
2019-03-21T03:28:25.669Z,18.67
2019-03-21T03:30:58.243Z,19.40
2019-03-21T03:33:30.285Z,19.17
2019-03-21T03:36:02.403Z,20.07
2019-03-21T03:38:34.400Z,18.20
2019-03-21T03:41:06.677Z,18.77
2019-03-21T03:43:38.629Z,20.70
2019-03-21T03:46:10.693Z,21.30
2019-03-21T03:48:42.724Z,21.87
2019-03-21T03:51:14.809Z,21.37
2019-03-21T03:53:46.809Z,21.80
2019-03-21T03:56:18.902Z,20.10
2019-03-21T03:58:52.401Z,19.80
2019-03-21T04:01:24.456Z,21.50
2019-03-21T04:03:56.653Z,22.57
2019-03-21T04:06:28.833Z,22.60
2019-03-21T04:09:01.024Z,20.60
2019-03-21T04:11:33.177Z,20.20
2019-03-21T04:14:05.286Z,21.40
2019-03-21T04:16:37.314Z,21.07
2019-03-21T04:19:09.443Z,21.10
2019-03-21T04:21:41.482Z,20.97
2019-03-21T04:24:13.562Z,21.67
2019-03-21T04:26:45.644Z,20.83
2019-03-21T04:29:17.761Z,20.03
2019-03-21T04:31:49.792Z,20.10
2019-03-21T04:34:21.776Z,20.50
2019-03-21T04:36:53.899Z,20.53
2019-03-21T04:39:25.942Z,19.73
2019-03-21T04:41:58.270Z,21.40
2019-03-21T04:44:30.195Z,19.20
2019-03-21T04:47:02.113Z,21.27
2019-03-21T04:49:34.144Z,20.40
2019-03-21T04:52:06.249Z,17.77
2019-03-21T04:54:38.297Z,22.27
2019-03-21T04:57:10.246Z,21.43
2019-03-21T04:59:42.378Z,22.23
2019-03-21T05:02:14.419Z,23.17
2019-03-21T05:04:46.480Z,21.30
2019-03-21T05:07:18.516Z,20.77
2019-03-21T05:09:50.618Z,22.00
2019-03-21T05:12:22.668Z,21.30
2019-03-21T05:14:54.699Z,22.20
2019-03-21T05:17:26.749Z,23.60
2019-03-21T05:19:58.882Z,22.67
2019-03-21T05:22:34.138Z,23.47
2019-03-21T05:25:07.069Z,22.97
2019-03-21T05:27:39.130Z,23.27
2019-03-21T05:30:16.206Z,23.90
2019-03-21T05:32:48.174Z,22.63
2019-03-21T05:35:20.213Z,23.77
2019-03-21T05:37:52.204Z,23.43
2019-03-21T05:40:24.282Z,21.97
2019-03-21T05:43:04.282Z,25.67
2019-03-21T05:45:36.203Z,25.90
2019-03-21T05:48:08.276Z,22.30
2019-03-21T05:50:40.391Z,25.40
2019-03-21T05:53:12.492Z,24.30
2019-03-21T05:55:44.483Z,24.60
2019-03-21T05:58:16.556Z,22.93
2019-03-21T06:00:51.374Z,25.07
2019-03-21T06:03:27.362Z,26.40
2019-03-21T06:06:13.370Z,25.10
2019-03-21T06:08:45.442Z,23.47
2019-03-21T06:11:18.054Z,24.60
2019-03-21T06:13:50.086Z,25.00
2019-03-21T06:16:22.126Z,27.60
2019-03-21T06:19:18.566Z,25.47
2019-03-21T06:22:53.589Z,24.63
2019-03-21T06:25:48.315Z,26.10
2019-03-21T06:28:20.467Z,27.43
2019-03-21T06:30:52.489Z,26.17
2019-03-21T06:33:24.579Z,29.03
2019-03-21T06:35:56.590Z,30.40
2019-03-21T06:38:28.679Z,26.90
2019-03-21T06:41:00.779Z,28.00
2019-03-21T06:43:32.761Z,31.87
2019-03-21T06:46:05.109Z,26.30
2019-03-21T06:48:37.195Z,27.77
2019-03-21T06:51:09.316Z,26.97
2019-03-21T06:53:41.314Z,28.70
2019-03-21T06:56:13.411Z,30.57
2019-03-21T06:58:45.456Z,27.90
2019-03-21T07:01:17.534Z,27.50
2019-03-21T07:03:49.592Z,28.77
2019-03-21T07:06:21.571Z,28.10
2019-03-21T07:08:53.676Z,22.03
2019-03-21T07:11:25.738Z,20.80
2019-03-21T07:13:57.844Z,18.40
2019-03-21T07:16:29.816Z,18.37
2019-03-21T07:19:01.902Z,16.37
2019-03-21T07:21:33.946Z,15.03
2019-03-21T07:24:07.533Z,15.90
2019-03-21T07:26:39.519Z,20.60
2019-03-21T07:29:32.696Z,16.93
2019-03-21T07:32:05.108Z,16.50
2019-03-21T07:34:37.687Z,16.60
2019-03-21T07:37:09.815Z,17.40
2019-03-21T07:39:41.938Z,18.10
2019-03-21T07:42:14.189Z,16.93
2019-03-21T07:44:46.222Z,18.20
2019-03-21T07:47:18.215Z,18.10
2019-03-21T07:49:50.284Z,18.07
2019-03-21T07:52:22.421Z,16.10
2019-03-21T07:54:54.553Z,16.70
2019-03-21T07:57:26.604Z,16.73
2019-03-21T07:59:58.729Z,16.90
2019-03-21T08:02:30.840Z,17.10
2019-03-21T08:05:02.938Z,16.47
2019-03-21T08:07:34.941Z,16.30
2019-03-21T08:10:08.425Z,16.57
2019-03-21T08:12:40.422Z,18.40
2019-03-21T08:15:31.422Z,15.17
2019-03-21T08:18:03.582Z,18.33
2019-03-21T08:20:35.556Z,16.33
2019-03-21T08:23:08.985Z,16.90
2019-03-21T08:25:41.102Z,16.03
2019-03-21T08:28:13.086Z,15.33
2019-03-21T08:31:18.571Z,15.33
2019-03-21T08:33:50.643Z,16.83
2019-03-21T08:36:22.647Z,15.57
2019-03-21T08:39:02.355Z,13.47
2019-03-21T08:41:34.598Z,14.80
2019-03-21T08:44:07.001Z,14.83
2019-03-21T08:46:39.024Z,14.63
2019-03-21T08:49:11.384Z,13.90
2019-03-21T08:51:43.426Z,13.90
2019-03-21T08:54:15.504Z,14.07
2019-03-21T08:56:47.596Z,14.23
2019-03-21T08:59:22.248Z,13.63
2019-03-21T09:01:54.411Z,13.57
2019-03-21T09:04:28.096Z,12.30
2019-03-21T09:07:00.165Z,12.17
2019-03-21T09:09:32.167Z,12.77
2019-03-21T09:12:04.255Z,12.50
2019-03-21T09:14:36.391Z,12.47
2019-03-21T09:17:09.691Z,12.43
2019-03-21T09:19:41.902Z,12.37
2019-03-21T09:22:17.286Z,12.70
2019-03-21T09:24:49.489Z,13.93
2019-03-21T09:27:21.574Z,12.50
2019-03-21T09:29:54.078Z,12.97
2019-03-21T09:32:26.184Z,12.47
2019-03-21T09:34:58.296Z,13.63
2019-03-21T09:37:30.467Z,13.10
2019-03-21T09:40:02.604Z,11.90
2019-03-21T09:42:34.751Z,11.83
2019-03-21T09:48:16.558Z,11.60
2019-03-21T09:50:48.634Z,11.20
2019-03-21T09:53:20.895Z,10.50
2019-03-21T09:55:53.080Z,11.13
2019-03-21T09:58:25.345Z,12.37
2019-03-21T10:00:57.499Z,11.80
2019-03-21T10:03:29.419Z,10.23
2019-03-21T10:06:01.428Z,9.33
2019-03-21T10:08:33.546Z,10.13
2019-03-21T10:11:05.772Z,9.57
2019-03-21T10:13:37.846Z,10.07
2019-03-21T10:16:10.063Z,10.30
2019-03-21T10:18:42.247Z,8.60
2019-03-21T10:21:17.347Z,8.87
2019-03-21T10:23:49.443Z,9.17
2019-03-21T10:26:21.612Z,9.40
2019-03-21T10:28:53.803Z,8.77
2019-03-21T10:31:26.133Z,9.60
2019-03-21T10:33:58.182Z,9.30
2019-03-21T10:36:30.204Z,8.23
2019-03-21T10:39:02.534Z,8.53
2019-03-21T10:41:34.669Z,9.73
2019-03-21T10:44:06.776Z,8.17
2019-03-21T10:46:42.836Z,8.27
2019-03-21T10:49:14.974Z,7.83
2019-03-21T10:51:54.889Z,9.27
2019-03-21T10:54:23.805Z,8.93
2019-03-21T10:56:55.943Z,8.60
2019-03-21T10:59:27.971Z,9.30
2019-03-21T11:02:07.250Z,9.43
2019-03-21T11:04:34.816Z,9.70
2019-03-21T11:07:03.554Z,10.63
2019-03-21T11:09:35.754Z,9.43
2019-03-21T11:12:09.045Z,8.13
2019-03-21T11:14:41.380Z,8.70
2019-03-21T11:17:13.527Z,9.60
2019-03-21T11:19:45.666Z,9.47
2019-03-21T11:22:18.943Z,10.53
2019-03-21T11:24:58.337Z,9.93
2019-03-21T11:27:32.941Z,11.30
2019-03-21T11:30:15.640Z,11.47
2019-03-21T11:32:39.529Z,9.20
2019-03-21T11:35:11.613Z,9.33
2019-03-21T11:37:43.660Z,9.63
2019-03-21T11:40:21.386Z,9.03
2019-03-21T11:42:58.478Z,10.00
2019-03-21T11:45:35.015Z,9.00
2019-03-21T11:48:18.104Z,9.83
2019-03-21T11:50:50.261Z,12.07
2019-03-21T11:53:22.782Z,10.90
2019-03-21T11:55:54.864Z,11.20
2019-03-21T11:58:26.928Z,10.87
2019-03-21T12:00:58.970Z,9.43
2019-03-21T12:03:31.113Z,8.70
2019-03-21T12:06:03.201Z,8.80
2019-03-21T12:08:35.283Z,8.47
2019-03-21T12:11:07.477Z,8.60
2019-03-21T12:13:39.538Z,8.70
2019-03-21T12:16:11.596Z,8.73
2019-03-21T12:18:43.820Z,9.23
2019-03-21T12:21:15.839Z,9.60
2019-03-21T12:23:47.899Z,9.40
2019-03-21T12:26:20.172Z,9.90
2019-03-21T12:28:52.290Z,9.70
2019-03-21T12:31:25.030Z,8.73
2019-03-21T12:33:59.156Z,9.03
2019-03-21T12:36:30.848Z,9.30
2019-03-21T12:39:11.376Z,8.37
2019-03-21T12:41:43.511Z,8.57
2019-03-21T12:44:15.732Z,9.20
2019-03-21T12:46:47.904Z,9.60
2019-03-21T12:49:20.033Z,10.17
2019-03-21T12:51:52.130Z,9.90
2019-03-21T12:54:27.364Z,9.10
2019-03-21T12:56:59.414Z,8.00
2019-03-21T12:59:31.491Z,7.90
2019-03-21T13:02:03.696Z,7.70
2019-03-21T13:04:35.829Z,9.47
2019-03-21T13:07:07.837Z,9.50
2019-03-21T13:09:39.894Z,9.37
2019-03-21T13:12:11.969Z,8.23
2019-03-21T13:14:44.068Z,8.00
2019-03-21T13:17:16.061Z,8.97
2019-03-21T13:19:48.274Z,7.70
2019-03-21T13:22:20.362Z,8.67
2019-03-21T13:24:52.503Z,9.43
2019-03-21T13:27:24.681Z,8.30
2019-03-21T13:29:56.794Z,8.83
2019-03-21T13:32:30.288Z,8.30
2019-03-21T13:35:02.421Z,8.17
2019-03-21T13:37:34.485Z,7.63
2019-03-21T13:40:06.869Z,7.73
2019-03-21T13:42:38.880Z,8.60
2019-03-21T13:45:11.082Z,7.73
2019-03-21T13:47:43.076Z,7.90
2019-03-21T13:50:15.501Z,8.23
2019-03-21T13:52:47.624Z,7.90
2019-03-21T13:55:19.862Z,8.60
2019-03-21T13:57:51.998Z,8.10
2019-03-21T14:00:24.761Z,7.10
2019-03-21T14:02:56.896Z,7.20
2019-03-21T14:05:29.099Z,8.03
2019-03-21T14:08:01.494Z,8.17
2019-03-21T14:10:33.852Z,8.10
2019-03-21T14:13:06.255Z,6.50
2019-03-21T14:15:38.728Z,7.33
2019-03-21T14:18:10.967Z,7.20
2019-03-21T14:20:43.102Z,8.53
2019-03-21T14:23:17.233Z,7.87
2019-03-21T14:25:49.209Z,7.97
2019-03-21T14:28:21.484Z,8.93
2019-03-21T14:30:53.787Z,7.33
2019-03-21T14:33:26.009Z,7.27
2019-03-21T14:35:58.077Z,8.37
2019-03-21T14:38:30.205Z,7.90
2019-03-21T14:41:02.521Z,7.27
2019-03-21T14:43:34.755Z,8.60
2019-03-21T14:46:07.027Z,7.80
2019-03-21T14:48:39.186Z,7.60
2019-03-21T14:51:11.257Z,7.53
2019-03-21T14:53:43.447Z,7.83
2019-03-21T14:56:15.550Z,9.80
2019-03-21T14:58:47.645Z,6.90
2019-03-21T15:01:19.792Z,8.03
2019-03-21T15:03:56.974Z,7.23
2019-03-21T15:06:29.179Z,8.27
2019-03-21T15:09:04.171Z,8.50
2019-03-21T15:11:39.414Z,9.10
2019-03-21T15:14:14.955Z,9.30
2019-03-21T15:16:48.663Z,10.17
2019-03-21T15:19:20.729Z,9.93
2019-03-21T15:21:52.695Z,8.70
2019-03-21T15:24:24.796Z,8.50
2019-03-21T15:26:56.836Z,9.10
2019-03-21T15:29:28.970Z,8.83
2019-03-21T15:32:01.163Z,10.03
2019-03-21T15:34:33.344Z,8.40
2019-03-21T15:37:05.490Z,10.00
2019-03-21T15:39:37.597Z,8.87
2019-03-21T15:42:09.681Z,9.90
2019-03-21T15:44:43.551Z,9.30
2019-03-21T15:47:15.777Z,9.53
2019-03-21T15:49:47.908Z,10.27
2019-03-21T15:52:20.083Z,9.40
2019-03-21T15:54:52.146Z,10.63
2019-03-21T15:57:24.324Z,10.77
2019-03-21T15:59:56.339Z,10.60
2019-03-21T16:02:28.506Z,10.07
2019-03-21T16:05:00.634Z,10.70
2019-03-21T16:07:32.797Z,10.47
2019-03-21T16:10:05.360Z,10.83
2019-03-21T16:12:37.490Z,11.63
2019-03-21T16:15:11.589Z,12.87
2019-03-21T16:17:43.729Z,12.30
2019-03-21T16:20:15.967Z,13.77
2019-03-21T16:22:48.120Z,14.07
2019-03-21T16:25:20.133Z,13.17
2019-03-21T16:27:52.252Z,12.03
2019-03-21T16:30:24.455Z,13.30
2019-03-21T16:32:56.540Z,15.40
2019-03-21T16:35:28.788Z,15.55
2019-03-21T16:38:00.957Z,16.00
2019-03-21T16:40:33.236Z,14.67
2019-03-21T16:43:06.019Z,16.40
2019-03-21T16:45:38.422Z,16.87
2019-03-21T16:48:10.483Z,16.00
2019-03-21T16:50:42.638Z,17.93
2019-03-21T16:53:14.800Z,17.83
2019-03-21T16:55:46.825Z,19.77
2019-03-21T16:58:18.941Z,18.63
2019-03-21T17:00:50.961Z,18.33
2019-03-21T17:03:23.111Z,19.50
2019-03-21T17:05:55.189Z,20.90
2019-03-21T17:08:27.257Z,19.20
2019-03-21T17:10:59.368Z,19.30
2019-03-21T17:13:31.452Z,19.67
2019-03-21T17:16:05.634Z,18.33
2019-03-21T17:18:37.504Z,19.57
2019-03-21T17:21:09.902Z,19.40
2019-03-21T17:23:42.051Z,19.80
2019-03-21T17:26:15.873Z,18.77
2019-03-21T17:28:48.038Z,18.77
2019-03-21T17:31:20.173Z,19.00
2019-03-21T17:33:52.343Z,18.20
2019-03-21T17:36:24.521Z,18.90
2019-03-21T17:38:56.827Z,18.40
2019-03-21T17:41:28.806Z,19.60
2019-03-21T17:44:00.976Z,18.60
2019-03-21T17:46:33.587Z,18.23
2019-03-21T17:49:05.765Z,19.87
2019-03-21T17:51:37.956Z,17.77
2019-03-21T17:54:10.061Z,18.40
2019-03-21T17:56:42.227Z,18.23
2019-03-21T17:59:14.355Z,19.67
2019-03-21T18:01:46.623Z,18.43
2019-03-21T18:04:18.896Z,18.13
2019-03-21T18:06:58.758Z,18.80
2019-03-21T18:09:31.580Z,19.20
2019-03-21T18:12:04.255Z,20.33
2019-03-21T18:14:36.450Z,18.80
2019-03-21T18:17:08.715Z,20.50
2019-03-21T18:19:40.868Z,21.93
2019-03-21T18:22:15.715Z,21.50
2019-03-21T18:24:53.860Z,22.27
2019-03-21T18:27:22.200Z,20.80
2019-03-21T18:29:56.206Z,23.10
2019-03-21T18:32:28.790Z,22.33
2019-03-21T18:35:01.213Z,22.60
2019-03-21T18:37:34.211Z,22.60
2019-03-21T18:40:06.847Z,24.50
2019-03-21T18:43:00.739Z,24.03
2019-03-21T18:45:40.204Z,22.80
2019-03-21T18:48:12.316Z,23.53
2019-03-21T18:50:44.460Z,24.20
2019-03-21T18:53:16.651Z,23.80
2019-03-21T18:55:53.875Z,25.63
2019-03-21T18:58:36.452Z,24.47
2019-03-21T19:01:13.488Z,24.50
2019-03-21T19:03:45.642Z,23.40
2019-03-21T19:06:17.743Z,24.03
2019-03-21T19:08:51.289Z,24.67
2019-03-21T19:11:23.505Z,24.47
2019-03-21T19:13:55.733Z,25.23
2019-03-21T19:16:32.058Z,24.70
2019-03-21T19:19:04.084Z,25.83
2019-03-21T19:21:36.269Z,26.27
2019-03-21T19:24:11.343Z,25.80
2019-03-21T19:26:42.303Z,25.60
2019-03-21T19:29:19.024Z,26.40
2019-03-21T19:31:51.362Z,25.67
2019-03-21T19:34:24.824Z,27.60
2019-03-21T19:37:00.017Z,24.00
2019-03-21T19:39:36.811Z,26.40
2019-03-21T19:42:08.958Z,24.57
2019-03-21T19:44:41.178Z,29.17
2019-03-21T19:47:23.230Z,24.90
2019-03-21T19:49:47.295Z,26.70
2019-03-21T19:52:19.471Z,27.70
2019-03-21T19:54:51.700Z,28.60
2019-03-21T19:57:23.795Z,27.90
2019-03-21T19:59:56.007Z,28.60
2019-03-21T20:02:28.169Z,25.90
2019-03-21T20:05:00.395Z,26.60
2019-03-21T20:07:32.489Z,29.80
2019-03-21T20:10:04.991Z,29.37
2019-03-21T20:12:37.526Z,31.20
2019-03-21T20:15:11.145Z,28.60
2019-03-21T20:17:43.175Z,27.10
2019-03-21T20:20:15.571Z,29.90
2019-03-21T20:22:47.948Z,31.70
2019-03-21T20:25:20.333Z,30.17
2019-03-21T20:27:52.511Z,29.33
2019-03-21T20:30:24.840Z,29.10
2019-03-21T20:33:00.861Z,28.80
2019-03-21T20:35:32.980Z,30.87
2019-03-21T20:38:05.249Z,30.10
2019-03-21T20:40:39.206Z,30.33
2019-03-21T20:43:10.991Z,30.80
2019-03-21T20:45:43.083Z,31.03
2019-03-21T20:48:15.064Z,29.87
2019-03-21T20:54:24.883Z,28.83
2019-03-21T20:56:57.080Z,32.20
2019-03-21T20:59:29.228Z,31.07
2019-03-21T21:02:03.047Z,30.40
2019-03-21T21:04:35.250Z,30.50
2019-03-21T21:07:07.461Z,30.80
2019-03-21T21:09:39.583Z,31.77
2019-03-21T21:12:11.714Z,30.47
2019-03-21T21:14:43.926Z,31.03
2019-03-21T21:17:16.037Z,32.67
2019-03-21T21:19:48.181Z,33.70
2019-03-21T21:22:20.249Z,32.17
2019-03-21T21:24:52.437Z,35.93
2019-03-21T21:27:24.706Z,33.47
2019-03-21T21:29:56.917Z,35.33
2019-03-21T21:32:29.151Z,34.03
2019-03-21T21:35:01.383Z,35.20
2019-03-21T21:37:33.857Z,35.17
2019-03-21T21:40:07.172Z,34.20
2019-03-21T21:42:39.507Z,35.50
2019-03-21T21:45:13.623Z,34.20
2019-03-21T21:47:48.680Z,36.50
2019-03-21T21:50:22.565Z,34.80
2019-03-21T21:52:55.108Z,35.30
2019-03-21T21:55:27.438Z,35.63
2019-03-21T21:57:59.607Z,37.60
2019-03-21T22:00:31.803Z,38.67
2019-03-21T22:03:11.307Z,40.20
2019-03-21T22:05:43.493Z,37.50
2019-03-21T22:08:15.796Z,38.37
2019-03-21T22:10:48.245Z,39.03
2019-03-21T22:13:20.515Z,37.23
2019-03-21T22:15:52.751Z,38.20
2019-03-21T22:18:27.775Z,35.93
2019-03-21T22:20:59.928Z,41.07
2019-03-21T22:23:32.157Z,37.27
2019-03-21T22:26:04.474Z,41.87
2019-03-21T22:28:36.611Z,40.60
2019-03-21T22:31:09.023Z,43.47
2019-03-21T22:33:41.424Z,43.20
2019-03-21T22:36:16.662Z,40.50
2019-03-21T22:38:48.810Z,43.30
2019-03-21T22:41:20.997Z,44.20
2019-03-21T22:43:53.211Z,43.60
2019-03-21T22:46:25.393Z,41.20
2019-03-21T22:48:57.506Z,42.93
2019-03-21T22:51:29.650Z,40.60
2019-03-21T22:54:01.821Z,40.93
2019-03-21T22:56:40.989Z,43.10
2019-03-21T22:59:07.811Z,39.50
2019-03-21T23:01:40.036Z,40.70
2019-03-21T23:04:30.937Z,43.90
2019-03-21T23:07:03.082Z,42.43
2019-03-21T23:09:35.204Z,43.80
2019-03-21T23:12:07.401Z,39.37
2019-03-21T23:14:39.551Z,41.93
2019-03-21T23:17:11.737Z,44.57
2019-03-21T23:19:44.010Z,45.47
2019-03-21T23:22:16.421Z,46.37
2019-03-21T23:24:48.490Z,47.80
2019-03-21T23:27:20.596Z,43.57
2019-03-21T23:29:52.692Z,45.80
2019-03-21T23:32:24.803Z,45.20
2019-03-21T23:34:56.970Z,46.43
2019-03-21T23:37:29.184Z,44.40
2019-03-21T23:40:01.282Z,48.00
2019-03-21T23:42:33.475Z,48.40
2019-03-21T23:45:05.959Z,49.17
2019-03-21T23:47:38.229Z,48.30
2019-03-21T23:50:10.865Z,50.90
2019-03-21T23:52:43.051Z,49.90
2019-03-21T23:55:15.705Z,49.20
2019-03-21T23:57:47.861Z,49.17
